createdAt,value
2018-02-11T00:00:22.100Z,66.00
2018-02-11T00:02:49.639Z,66.10
2018-02-11T00:05:17.138Z,66.00
2018-02-11T00:07:45.468Z,66.10
2018-02-11T00:10:12.976Z,66.10
2018-02-11T00:12:40.503Z,66.30
2018-02-11T00:15:08.019Z,66.60
2018-02-11T00:17:35.553Z,66.90
2018-02-11T00:20:03.064Z,67.10
2018-02-11T00:22:30.570Z,67.30
2018-02-11T00:24:58.090Z,66.80
2018-02-11T00:27:25.589Z,66.80
2018-02-11T00:29:53.115Z,67.00
2018-02-11T00:32:21.472Z,67.10
2018-02-11T00:34:49.012Z,67.50
2018-02-11T00:37:16.531Z,66.70
2018-02-11T00:39:44.821Z,66.70
2018-02-11T00:42:12.348Z,66.70
2018-02-11T00:44:40.648Z,66.60
2018-02-11T00:47:08.175Z,66.60
2018-02-11T00:49:35.679Z,66.90
2018-02-11T00:52:03.248Z,67.20
2018-02-11T00:54:30.769Z,67.10
2018-02-11T00:56:58.297Z,67.10
2018-02-11T00:59:25.804Z,67.00
2018-02-11T01:01:53.303Z,67.00
2018-02-11T01:04:20.876Z,66.60
2018-02-11T01:06:48.371Z,66.60
2018-02-11T01:09:15.887Z,66.70
2018-02-11T01:11:43.444Z,67.00
2018-02-11T01:14:10.978Z,66.80
2018-02-11T01:16:38.472Z,66.90
2018-02-11T01:19:06.753Z,66.30
2018-02-11T01:21:35.026Z,66.50
2018-02-11T01:24:03.287Z,66.30
2018-02-11T01:26:30.796Z,66.20
2018-02-11T01:28:58.311Z,66.20
2018-02-11T01:31:26.570Z,66.80
2018-02-11T01:33:54.082Z,66.70
2018-02-11T01:36:21.583Z,66.90
2018-02-11T01:38:49.096Z,67.00
2018-02-11T01:41:16.587Z,67.40
2018-02-11T01:43:44.120Z,67.60
2018-02-11T01:46:11.639Z,67.70
2018-02-11T01:48:40.228Z,67.80
2018-02-11T01:51:08.479Z,67.80
2018-02-11T01:53:36.778Z,67.80
2018-02-11T01:56:05.066Z,67.70
2018-02-11T01:58:32.576Z,67.70
2018-02-11T02:01:00.100Z,67.80
2018-02-11T02:03:27.655Z,67.70
2018-02-11T02:05:55.167Z,67.80
2018-02-11T02:08:23.459Z,67.90
2018-02-11T02:10:51.762Z,68.00
2018-02-11T02:13:19.279Z,67.90
2018-02-11T02:15:47.563Z,67.60
2018-02-11T02:18:15.853Z,67.60
2018-02-11T02:20:43.348Z,67.50
2018-02-11T02:23:10.870Z,67.80
2018-02-11T02:25:38.383Z,67.70
2018-02-11T02:28:05.928Z,67.50
2018-02-11T02:30:33.428Z,67.50
2018-02-11T02:33:01.688Z,68.50
2018-02-11T02:35:29.204Z,67.60
2018-02-11T02:37:56.703Z,67.70
2018-02-11T02:40:25.005Z,67.70
2018-02-11T02:42:52.507Z,67.50
2018-02-11T02:45:20.041Z,67.60
2018-02-11T02:47:47.544Z,67.50
2018-02-11T02:50:15.046Z,67.60
2018-02-11T02:52:42.580Z,67.50
2018-02-11T02:55:10.092Z,67.50
2018-02-11T02:57:37.612Z,67.50
2018-02-11T03:00:05.115Z,67.70
2018-02-11T03:02:32.624Z,67.70
2018-02-11T03:05:00.129Z,67.90
2018-02-11T03:07:27.642Z,67.90
2018-02-11T03:09:55.146Z,67.70
2018-02-11T03:12:22.653Z,67.60
2018-02-11T03:14:50.292Z,67.80
2018-02-11T03:17:18.561Z,67.70
2018-02-11T03:19:46.064Z,67.70
2018-02-11T03:22:13.573Z,67.50
2018-02-11T03:24:41.086Z,67.40
2018-02-11T03:27:08.575Z,67.40
2018-02-11T03:29:36.088Z,67.50
2018-02-11T03:32:04.379Z,67.30
2018-02-11T03:34:31.862Z,67.20
2018-02-11T03:36:59.502Z,67.30
2018-02-11T03:39:26.999Z,67.20
2018-02-11T03:41:55.282Z,67.40
2018-02-11T03:44:23.553Z,67.00
2018-02-11T03:46:51.840Z,66.60
2018-02-11T03:49:20.110Z,66.10
2018-02-11T03:51:48.395Z,66.30
2018-02-11T03:54:16.656Z,66.20
2018-02-11T03:56:44.911Z,66.20
2018-02-11T03:59:13.191Z,66.10
2018-02-11T04:01:40.676Z,66.20
2018-02-11T04:04:08.203Z,66.10
2018-02-11T04:06:35.696Z,66.00
2018-02-11T04:09:03.211Z,65.60
2018-02-11T04:11:30.699Z,65.40
2018-02-11T04:13:58.979Z,65.00
2018-02-11T04:16:27.234Z,65.00
2018-02-11T04:18:55.524Z,64.80
2018-02-11T04:21:23.841Z,64.60
2018-02-11T04:23:51.339Z,64.50
2018-02-11T04:26:18.851Z,64.60
2018-02-11T04:28:46.337Z,63.30
2018-02-11T04:31:13.859Z,63.40
2018-02-11T04:33:41.355Z,62.70
2018-02-11T04:36:08.874Z,62.60
2018-02-11T04:38:36.387Z,62.50
2018-02-11T04:41:03.872Z,62.70
2018-02-11T04:43:31.373Z,62.10
2018-02-11T04:45:58.871Z,62.30
2018-02-11T04:48:27.155Z,61.40
2018-02-11T04:50:54.650Z,61.40
2018-02-11T04:53:22.168Z,61.60
2018-02-11T04:55:50.416Z,61.50
2018-02-11T04:58:17.900Z,61.40
2018-02-11T05:00:46.283Z,60.90
2018-02-11T05:03:13.780Z,60.90
2018-02-11T05:05:41.287Z,60.90
2018-02-11T05:08:09.542Z,60.60
2018-02-11T05:10:37.061Z,61.40
2018-02-11T05:13:04.587Z,60.30
2018-02-11T05:15:32.091Z,60.60
2018-02-11T05:17:59.611Z,60.00
2018-02-11T05:20:27.114Z,60.10
2018-02-11T05:22:54.632Z,59.90
2018-02-11T05:25:22.123Z,59.50
2018-02-11T05:27:49.614Z,59.60
2018-02-11T05:30:17.890Z,59.60
2018-02-11T05:32:46.149Z,59.60
2018-02-11T05:35:13.674Z,59.60
2018-02-11T05:37:41.179Z,59.40
2018-02-11T05:40:09.471Z,59.70
2018-02-11T05:42:36.975Z,59.60
2018-02-11T05:45:04.478Z,59.60
2018-02-11T05:47:32.755Z,59.60
2018-02-11T05:50:00.247Z,59.60
2018-02-11T05:52:27.770Z,58.90
2018-02-11T05:54:56.045Z,59.40
2018-02-11T05:57:24.323Z,59.10
2018-02-11T05:59:51.850Z,59.10
2018-02-11T06:02:19.335Z,58.90
2018-02-11T06:04:47.608Z,59.10
2018-02-11T06:07:15.885Z,58.70
2018-02-11T06:09:43.408Z,58.70
2018-02-11T06:12:10.893Z,58.30
2018-02-11T06:14:39.175Z,58.40
2018-02-11T06:17:06.691Z,58.40
2018-02-11T06:19:34.177Z,58.60
2018-02-11T06:22:01.689Z,58.10
2018-02-11T06:24:29.183Z,58.30
2018-02-11T06:26:57.475Z,58.20
2018-02-11T06:29:25.739Z,57.90
2018-02-11T06:31:54.008Z,57.90
2018-02-11T06:34:22.295Z,59.00
2018-02-11T06:36:50.556Z,57.80
2018-02-11T06:39:18.059Z,57.80
2018-02-11T06:41:45.559Z,58.40
2018-02-11T06:44:13.100Z,57.50
2018-02-11T06:46:40.584Z,57.70
2018-02-11T06:49:09.176Z,58.00
2018-02-11T06:51:37.452Z,57.80
2018-02-11T06:54:05.707Z,57.70
2018-02-11T06:56:33.232Z,57.70
2018-02-11T06:59:00.724Z,57.30
2018-02-11T07:01:28.248Z,57.70
2018-02-11T07:03:55.746Z,57.50
2018-02-11T07:06:23.240Z,57.60
2018-02-11T07:08:50.751Z,57.20
2018-02-11T07:11:19.751Z,57.10
2018-02-11T07:13:47.291Z,57.00
2018-02-11T07:16:14.799Z,57.00
2018-02-11T07:18:42.351Z,56.90
2018-02-11T07:21:10.605Z,57.20
2018-02-11T07:23:38.903Z,57.10
2018-02-11T07:26:06.407Z,57.10
2018-02-11T07:28:33.941Z,57.30
2018-02-11T07:31:01.447Z,56.80
2018-02-11T07:33:29.695Z,57.10
2018-02-11T07:35:57.215Z,57.10
2018-02-11T07:38:24.707Z,57.10
2018-02-11T07:40:52.233Z,56.50
2018-02-11T07:43:19.723Z,56.40
2018-02-11T07:45:47.213Z,56.30
2018-02-11T07:48:14.778Z,56.70
2018-02-11T07:50:43.045Z,57.00
2018-02-11T07:53:10.593Z,57.00
2018-02-11T07:55:38.088Z,57.00
2018-02-11T07:58:05.615Z,57.10
2018-02-11T08:00:33.118Z,57.30
2018-02-11T08:03:00.643Z,57.50
2018-02-11T08:05:28.914Z,56.10
2018-02-11T08:07:57.215Z,55.70
2018-02-11T08:10:24.718Z,55.70
2018-02-11T08:12:52.224Z,56.60
2018-02-11T08:15:19.795Z,56.10
2018-02-11T08:17:47.286Z,56.40
2018-02-11T08:20:14.820Z,56.50
2018-02-11T08:22:42.311Z,55.50
2018-02-11T08:25:10.618Z,55.70
2018-02-11T08:27:38.890Z,55.50
2018-02-11T08:30:07.150Z,55.10
2018-02-11T08:32:35.461Z,54.90
2018-02-11T08:35:02.963Z,54.80
2018-02-11T08:37:30.513Z,55.20
2018-02-11T08:39:57.995Z,54.90
2018-02-11T08:42:26.276Z,55.30
2018-02-11T08:44:54.580Z,54.20
2018-02-11T08:47:22.090Z,54.10
2018-02-11T08:49:49.610Z,54.40
2018-02-11T08:52:17.137Z,54.70
2018-02-11T08:54:45.431Z,54.10
2018-02-11T08:57:12.917Z,54.10
2018-02-11T08:59:40.411Z,53.80
2018-02-11T09:02:08.079Z,53.90
2018-02-11T09:04:35.573Z,53.10
2018-02-11T09:07:03.154Z,54.60
2018-02-11T09:09:30.651Z,53.90
2018-02-11T09:11:58.178Z,53.80
2018-02-11T09:14:25.664Z,53.60
2018-02-11T09:16:53.212Z,53.80
2018-02-11T09:19:20.753Z,53.80
2018-02-11T09:21:48.300Z,54.00
2018-02-11T09:24:15.844Z,54.10
2018-02-11T09:26:43.350Z,54.60
2018-02-11T09:29:10.875Z,54.50
2018-02-11T09:31:38.380Z,54.50
2018-02-11T09:34:06.719Z,55.00
2018-02-11T09:36:34.239Z,55.00
2018-02-11T09:39:01.771Z,54.60
2018-02-11T09:41:30.052Z,55.80
2018-02-11T09:43:58.351Z,55.20
2018-02-11T09:46:25.926Z,55.20
2018-02-11T09:48:53.433Z,55.20
2018-02-11T09:51:21.718Z,55.60
2018-02-11T09:53:49.998Z,55.90
2018-02-11T09:56:18.293Z,56.10
2018-02-11T09:58:45.784Z,56.10
2018-02-11T10:01:13.303Z,56.40
2018-02-11T10:03:40.808Z,56.50
2018-02-11T10:06:08.341Z,56.80
2018-02-11T10:08:35.837Z,57.00
2018-02-11T10:11:03.394Z,57.30
2018-02-11T10:13:30.911Z,57.50
2018-02-11T10:15:58.441Z,57.80
2018-02-11T10:18:25.982Z,57.90
2018-02-11T10:20:54.257Z,58.20
2018-02-11T10:23:22.559Z,58.60
2018-02-11T10:25:50.060Z,58.60
2018-02-11T10:28:17.619Z,58.80
2018-02-11T10:30:45.120Z,59.10
2018-02-11T10:33:13.410Z,59.60
2018-02-11T10:35:40.973Z,59.50
2018-02-11T10:38:08.488Z,59.50
2018-02-11T10:40:36.795Z,60.70
2018-02-11T10:43:04.304Z,60.60
2018-02-11T10:45:31.827Z,61.10
2018-02-11T10:47:59.344Z,60.90
2018-02-11T10:50:27.609Z,61.00
2018-02-11T10:52:55.143Z,60.90
2018-02-11T10:55:22.672Z,61.60
2018-02-11T10:57:50.215Z,62.00
2018-02-11T11:00:17.719Z,62.50
2018-02-11T11:02:45.241Z,64.20
2018-02-11T11:05:12.743Z,64.50
2018-02-11T11:07:40.257Z,64.60
2018-02-11T11:10:07.788Z,65.00
2018-02-11T11:12:36.052Z,65.80
2018-02-11T11:15:04.345Z,65.90
2018-02-11T11:17:32.636Z,65.90
2018-02-11T11:20:00.172Z,65.90
2018-02-11T11:22:28.452Z,66.30
2018-02-11T11:24:55.949Z,66.30
2018-02-11T11:27:23.472Z,66.30
2018-02-11T11:29:50.964Z,66.40
2018-02-11T11:32:18.492Z,66.50
2018-02-11T11:34:46.003Z,66.40
2018-02-11T11:37:13.557Z,66.80
2018-02-11T11:39:41.085Z,66.90
2018-02-11T11:42:08.591Z,67.10
2018-02-11T11:44:36.128Z,68.00
2018-02-11T11:47:03.656Z,68.30
2018-02-11T11:49:31.181Z,68.70
2018-02-11T11:51:59.463Z,69.20
2018-02-11T11:54:28.250Z,70.10
2018-02-11T11:56:56.565Z,71.10
2018-02-11T11:59:24.071Z,71.10
2018-02-11T12:01:52.376Z,71.80
2018-02-11T12:04:20.684Z,71.80
2018-02-11T12:06:48.588Z,71.70
2018-02-11T12:09:16.845Z,71.90
2018-02-11T12:11:44.383Z,71.50
2018-02-11T12:14:11.872Z,71.40
2018-02-11T12:16:40.177Z,72.20
2018-02-11T12:19:07.669Z,71.80
2018-02-11T12:21:35.235Z,72.00
2018-02-11T12:24:02.755Z,71.80
2018-02-11T12:26:30.298Z,71.60
2018-02-11T12:28:58.608Z,71.80
2018-02-11T12:31:26.126Z,71.80
2018-02-11T12:33:54.435Z,71.90
2018-02-11T12:36:21.966Z,71.90
2018-02-11T12:38:50.253Z,71.40
2018-02-11T12:41:17.848Z,71.40
2018-02-11T12:43:45.383Z,71.40
2018-02-11T12:46:12.945Z,70.90
2018-02-11T12:48:40.476Z,70.70
2018-02-11T12:51:08.250Z,70.50
2018-02-11T12:53:36.590Z,70.20
2018-02-11T12:56:04.113Z,69.90
2018-02-11T12:58:31.647Z,69.70
2018-02-11T13:00:59.148Z,69.60
2018-02-11T13:03:26.695Z,69.50
2018-02-11T13:05:54.237Z,69.40
2018-02-11T13:08:21.792Z,69.30
2018-02-11T13:10:49.363Z,69.20
2018-02-11T13:13:16.884Z,69.10
2018-02-11T13:15:44.397Z,69.00
2018-02-11T13:18:11.968Z,69.00
2018-02-11T13:20:39.488Z,68.90
2018-02-11T13:23:07.028Z,68.70
2018-02-11T13:25:34.542Z,68.80
2018-02-11T13:28:02.106Z,68.70
2018-02-11T13:30:29.699Z,68.90
2018-02-11T13:32:57.234Z,69.00
2018-02-11T13:35:25.512Z,72.30
2018-02-11T13:37:53.821Z,74.10
2018-02-11T13:40:21.353Z,74.00
2018-02-11T13:42:48.881Z,73.70
2018-02-11T13:45:16.391Z,68.70
2018-02-11T13:47:43.945Z,70.50
2018-02-11T13:50:11.535Z,70.20
2018-02-11T13:52:39.140Z,68.20
2018-02-11T13:55:06.665Z,67.10
2018-02-11T13:57:34.199Z,67.50
2018-02-11T14:00:01.732Z,67.70
2018-02-11T14:02:29.272Z,67.60
2018-02-11T14:04:57.533Z,68.60
2018-02-11T14:07:25.812Z,68.80
2018-02-11T14:09:54.113Z,69.80
2018-02-11T14:12:21.659Z,69.20
2018-02-11T14:14:49.181Z,69.70
2018-02-11T14:17:16.698Z,70.10
2018-02-11T14:19:44.221Z,70.70
2018-02-11T14:22:12.498Z,70.90
2018-02-11T14:24:40.792Z,71.40
2018-02-11T14:27:08.299Z,71.30
2018-02-11T14:29:35.865Z,72.00
2018-02-11T14:32:03.384Z,71.60
2018-02-11T14:34:30.890Z,71.60
2018-02-11T14:36:58.407Z,71.60
2018-02-11T14:39:25.998Z,71.90
2018-02-11T14:41:53.560Z,71.60
2018-02-11T14:44:21.068Z,71.50
2018-02-11T14:46:48.596Z,72.10
2018-02-11T14:49:16.878Z,72.50
2018-02-11T14:51:45.169Z,72.50
2018-02-11T14:54:12.727Z,72.50
2018-02-11T14:56:40.235Z,72.70
2018-02-11T14:59:07.771Z,73.10
2018-02-11T15:01:35.256Z,73.30
2018-02-11T15:04:02.769Z,73.50
2018-02-11T15:06:30.282Z,73.50
2018-02-11T15:08:58.563Z,73.40
2018-02-11T15:11:26.912Z,73.50
2018-02-11T15:13:54.409Z,73.50
2018-02-11T15:16:22.687Z,74.10
2018-02-11T15:18:50.212Z,74.10
2018-02-11T15:21:18.503Z,75.00
2018-02-11T15:23:46.812Z,75.00
2018-02-11T15:26:14.360Z,74.90
2018-02-11T15:28:41.852Z,74.80
2018-02-11T15:31:09.376Z,74.70
2018-02-11T15:33:36.912Z,74.40
2018-02-11T15:36:05.240Z,74.20
2018-02-11T15:38:32.752Z,74.20
2018-02-11T15:41:01.023Z,74.20
2018-02-11T15:43:29.334Z,74.00
2018-02-11T15:45:56.845Z,74.00
2018-02-11T15:48:24.376Z,73.80
2018-02-11T15:50:51.903Z,73.50
2018-02-11T15:53:19.488Z,73.20
2018-02-11T15:55:47.025Z,73.10
2018-02-11T15:58:14.558Z,72.70
2018-02-11T16:00:42.825Z,73.20
2018-02-11T16:03:11.097Z,73.00
2018-02-11T16:05:39.428Z,72.70
2018-02-11T16:08:06.935Z,72.60
2018-02-11T16:10:35.207Z,73.60
2018-02-11T16:13:03.512Z,72.70
2018-02-11T16:15:31.044Z,72.50
2018-02-11T16:17:59.352Z,72.40
2018-02-11T16:20:26.879Z,72.40
2018-02-11T16:22:55.197Z,72.10
2018-02-11T16:25:22.740Z,72.10
2018-02-11T16:27:50.232Z,72.30
2018-02-11T16:30:17.796Z,72.20
2018-02-11T16:32:45.300Z,71.80
2018-02-11T16:35:12.821Z,71.70
2018-02-11T16:37:40.418Z,71.30
2018-02-11T16:40:07.953Z,71.10
2018-02-11T16:42:36.235Z,71.10
2018-02-11T16:45:04.523Z,71.00
2018-02-11T16:47:32.818Z,71.10
2018-02-11T16:50:00.348Z,71.10
2018-02-11T16:52:28.663Z,71.00
2018-02-11T16:54:56.180Z,70.90
2018-02-11T16:57:24.502Z,70.90
2018-02-11T16:59:52.009Z,70.90
2018-02-11T17:02:20.305Z,71.00
2018-02-11T17:04:48.898Z,71.10
2018-02-11T17:07:16.431Z,71.10
2018-02-11T17:09:44.765Z,71.70
2018-02-11T17:12:12.290Z,70.90
2018-02-11T17:14:39.814Z,71.20
2018-02-11T17:17:08.081Z,71.50
2018-02-11T17:19:35.868Z,71.50
2018-02-11T17:22:04.181Z,71.30
2018-02-11T17:24:31.685Z,71.30
2018-02-11T17:26:59.976Z,71.20
2018-02-11T17:29:28.239Z,71.20
2018-02-11T17:31:56.621Z,72.00
2018-02-11T17:34:24.117Z,71.20
2018-02-11T17:36:51.604Z,71.00
2018-02-11T17:39:19.202Z,71.10
2018-02-11T17:41:47.470Z,71.10
2018-02-11T17:44:15.768Z,71.10
2018-02-11T17:46:43.381Z,71.00
2018-02-11T17:49:10.929Z,71.30
2018-02-11T17:51:38.445Z,71.50
2018-02-11T17:54:05.953Z,71.40
2018-02-11T17:56:33.487Z,71.30
2018-02-11T17:59:01.011Z,71.10
2018-02-11T18:01:28.548Z,71.00
2018-02-11T18:03:56.813Z,71.10
2018-02-11T18:06:24.366Z,71.10
2018-02-11T18:08:51.884Z,71.30
2018-02-11T18:11:19.413Z,71.40
2018-02-11T18:13:47.722Z,71.40
2018-02-11T18:16:15.264Z,71.40
2018-02-11T18:18:42.804Z,71.40
2018-02-11T18:21:10.320Z,71.50
2018-02-11T18:23:37.861Z,71.50
2018-02-11T18:26:05.379Z,71.30
2018-02-11T18:28:32.934Z,71.30
2018-02-11T18:31:01.254Z,71.10
2018-02-11T18:33:28.792Z,71.10
2018-02-11T18:35:56.336Z,70.90
2018-02-11T18:38:23.841Z,70.80
2018-02-11T18:40:51.384Z,70.70
2018-02-11T18:43:18.940Z,70.90
2018-02-11T18:45:46.459Z,70.60
2018-02-11T18:48:14.853Z,70.60
2018-02-11T18:50:42.369Z,70.60
2018-02-11T18:53:09.868Z,70.90
2018-02-11T18:55:37.512Z,70.70
2018-02-11T18:58:05.112Z,70.60
2018-02-11T19:00:32.734Z,70.60
2018-02-11T19:03:00.257Z,70.50
2018-02-11T19:05:27.794Z,71.10
2018-02-11T19:07:55.301Z,70.40
2018-02-11T19:10:22.806Z,70.60
2018-02-11T19:12:50.357Z,70.70
2018-02-11T19:15:17.908Z,70.50
2018-02-11T19:17:45.454Z,70.20
2018-02-11T19:20:12.967Z,70.50
2018-02-11T19:22:40.519Z,70.60
2018-02-11T19:25:08.089Z,70.50
2018-02-11T19:27:35.628Z,70.20
2018-02-11T19:30:03.157Z,70.00
2018-02-11T19:32:30.658Z,70.10
2018-02-11T19:34:58.204Z,70.10
2018-02-11T19:37:26.482Z,69.90
2018-02-11T19:39:54.006Z,69.90
2018-02-11T19:42:21.548Z,69.80
2018-02-11T19:44:49.076Z,69.70
2018-02-11T19:47:17.384Z,70.00
2018-02-11T19:49:44.919Z,69.90
2018-02-11T19:52:13.215Z,69.80
2018-02-11T19:54:40.720Z,69.80
2018-02-11T19:57:08.338Z,69.60
2018-02-11T19:59:35.863Z,69.70
2018-02-11T20:02:03.422Z,69.60
2018-02-11T20:04:30.978Z,69.50
2018-02-11T20:06:59.260Z,69.70
2018-02-11T20:09:27.573Z,69.70
2018-02-11T20:11:55.071Z,69.70
2018-02-11T20:14:22.648Z,70.00
2018-02-11T20:16:50.934Z,69.70
2018-02-11T20:19:19.238Z,69.80
2018-02-11T20:21:46.745Z,69.80
2018-02-11T20:24:14.265Z,69.60
2018-02-11T20:26:41.837Z,69.00
2018-02-11T20:29:09.359Z,69.50
2018-02-11T20:31:36.902Z,69.50
2018-02-11T20:34:04.418Z,69.40
2018-02-11T20:36:31.954Z,69.40
2018-02-11T20:38:59.464Z,69.70
2018-02-11T20:41:27.886Z,69.80
2018-02-11T20:43:55.412Z,69.80
2018-02-11T20:46:22.947Z,69.70
2018-02-11T20:48:50.482Z,69.80
2018-02-11T20:51:17.991Z,69.90
2018-02-11T20:53:45.591Z,70.00
2018-02-11T20:56:13.180Z,69.90
2018-02-11T20:58:40.731Z,69.80
2018-02-11T21:01:08.266Z,69.50
2018-02-11T21:03:35.826Z,70.00
2018-02-11T21:06:03.398Z,70.00
2018-02-11T21:08:30.915Z,70.00
2018-02-11T21:10:58.471Z,69.30
2018-02-11T21:13:25.980Z,69.50
2018-02-11T21:15:53.520Z,69.50
2018-02-11T21:18:21.051Z,69.50
2018-02-11T21:20:48.593Z,69.40
2018-02-11T21:23:16.119Z,69.10
2018-02-11T21:25:44.379Z,69.70
2018-02-11T21:28:11.960Z,68.60
2018-02-11T21:30:40.255Z,68.50
2018-02-11T21:33:07.792Z,68.50
2018-02-11T21:35:36.064Z,68.10
2018-02-11T21:38:04.365Z,68.00
2018-02-11T21:40:31.894Z,68.00
2018-02-11T21:42:59.447Z,67.70
2018-02-11T21:45:27.729Z,67.20
2018-02-11T21:47:55.312Z,67.30
2018-02-11T21:50:22.832Z,67.60
2018-02-11T21:52:51.093Z,67.90
2018-02-11T21:55:19.580Z,67.90
2018-02-11T21:57:47.081Z,68.20
2018-02-11T22:00:15.412Z,68.10
2018-02-11T22:02:42.921Z,68.10
2018-02-11T22:05:10.457Z,67.90
2018-02-11T22:07:38.763Z,69.10
2018-02-11T22:10:06.252Z,69.10
2018-02-11T22:12:33.785Z,69.60
2018-02-11T22:15:01.311Z,70.00
2018-02-11T22:17:29.610Z,70.80
2018-02-11T22:19:57.463Z,70.80
2018-02-11T22:22:25.005Z,71.10
2018-02-11T22:24:53.266Z,71.10
2018-02-11T22:27:20.801Z,71.10
2018-02-11T22:29:48.315Z,71.30
2018-02-11T22:32:15.819Z,71.30
2018-02-11T22:34:43.346Z,71.10
2018-02-11T22:37:10.842Z,71.20
2018-02-11T22:39:38.388Z,71.20
2018-02-11T22:42:05.888Z,71.20
2018-02-11T22:44:34.175Z,71.30
2018-02-11T22:47:01.689Z,71.40
2018-02-11T22:49:29.273Z,71.40
2018-02-11T22:51:57.554Z,71.30
2018-02-11T22:54:25.862Z,71.20
2018-02-11T22:56:54.095Z,71.20
2018-02-11T22:59:21.629Z,71.20
2018-02-11T23:01:49.476Z,71.30
2018-02-11T23:04:16.962Z,71.40
2018-02-11T23:06:45.375Z,71.70
2018-02-11T23:09:13.271Z,71.60
2018-02-11T23:11:40.805Z,71.50
2018-02-11T23:14:08.365Z,71.60
2018-02-11T23:16:35.884Z,71.60
2018-02-11T23:19:03.424Z,71.60
2018-02-11T23:21:30.927Z,71.80
2018-02-11T23:23:58.448Z,72.00
2018-02-11T23:26:25.982Z,71.90
2018-02-11T23:28:53.516Z,71.80
2018-02-11T23:31:21.023Z,71.70
2018-02-11T23:33:48.571Z,71.50
2018-02-11T23:36:16.107Z,71.20
2018-02-11T23:38:43.603Z,70.80
2018-02-11T23:41:11.113Z,70.50
2018-02-11T23:43:38.665Z,70.00
2018-02-11T23:46:06.194Z,69.40
2018-02-11T23:48:34.453Z,69.20
2018-02-11T23:51:02.770Z,69.60
2018-02-11T23:53:30.308Z,69.60
2018-02-11T23:55:58.575Z,71.60
2018-02-11T23:58:26.864Z,71.60
